Aérodrome :
LOGIN :

S'inscrire | Disclaimer

   EN    FR    IT 

 










Légende :    VFR   VFR Marginal   IFR   IFR Intensif   IFR Très Intensif
Visi : 
Plafond : 
>= 8 km
>= 3000ft
5 à 8 km
1000 à 3000 ft
1500m à 5 km
500 à 1000 ft
800 à 1500m
200 à 500 ft
< 800m
< 200 ft
Symboles :   Orages  Brouillard  Fortes neiges  Fortes précipitations  Vent > 20 kt
SIGMETs :   Divers  Orages  Givrage  Turbulence  Onde Orograph.  Cendres Volcan.







- Altitude de l'aérodrome : 885 ft
- Code IATA : BAS
- Voir les cartes d'approche


LFSB - Bale-Mulhouse

DERNIER METAR :
  • 241530Z 36009KT 9999 BKN025 BKN230 13/07 Q1022 NOSIG

METARs EXPIRÉS :
  • 241500Z 01009KT 330V040 9999 BKN024 BKN210 13/08 Q1022 NOSIG
  • 241430Z 36008KT 320V050 9999 FEW016 BKN024 13/08 Q1022 NOSIG
  • 241400Z 36009KT 330V030 9999 FEW016 BKN022 12/08 Q1022 NOSIG
  • 241330Z 36009G21KT 330V040 9999 FEW016 BKN023 12/08 Q1022 NOSIG
  • 241300Z 36008KT 330V040 9999 FEW015 BKN021 12/08 Q1022 NOSIG

TAF TAF LFSB
Valide du 24 à 12h jusqu'au 25 à 12h UTC


241100Z 2412/2512 35008KT 9999 BKN020 BKN200
PROB30
TEMPO 2412/2413 BKN013
BECMG 2423/2502 2500 BR BKN007
TEMPO 2500/2508 BKN003
PROB30
TEMPO 2502/2505 0800 FG OVC002
BECMG 2508/2510 8000 NSW SCT010 BKN023
Météo : +33 3 89 90 31 11
Pas de NOTAMs connus pour ce terrain.



MET'MAP, la Météo Aéronautique d'un coup d'oeil ! - Copyright ORBIFLY Décembre 2007 - Disclaimer

ORBIFLY MET'MAP TEAM :

Programmation & Développement : Alexandra Zaïnal
Conception & Développement : Baudouin d'Aumeries
Co-Programmation & Développement : Marc-Olivier Méhu
Soutien technique & logistique : Manuel Goepfert

Contact : metmap@orbifly.com




SOURCES & CREDITS :

   NOAA